Catina — VJD3632 — position and weather

sailwx.info

Track history (hours):
 
Tides and Currents Weather Stations Pressure Air Temp Water Temp Dewpoint Dewpoint Depression Visibility Wind Speed Wind Dir Waves Ship Positions

Catina

Last reported at 2017-Nov-16 08:10 UTC. Time now 2017-Nov-25 01:42 UTC.
Position S 33°49' E 151°17'.
Warning: this ship's position is 8 days out of date.

Length 12 m; draft 0.9 m.

Type: Sailing vessel. MMSI: 503011820.

Date/timePositionNaut miles runAvg speedWind from/ knotsBaromVisibWave heightAir tempDewpointWater temp
2017-Nov-16 08:10S 33°49' E 151°17'0 0.0
2017-Nov-16 07:59S 33°49' E 151°17'1 2.6
2017-Nov-16 07:30S 33°50' E 151°18'3 6.9
2017-Nov-16 07:00S 33°47' E 151°21'4 7.2
2017-Nov-16 06:30S 33°44' E 151°24'4 7.0
2017-Nov-16 06:00S 33°41' E 151°26'3 6.6
2017-Nov-16 05:30S 33°39' E 151°29'3 6.1
2017-Nov-16 05:00S 33°37' E 151°31'3 7.0
2017-Nov-16 04:30S 33°34' E 151°34'3 6.3
2017-Nov-16 04:00S 33°31' E 151°36'3 5.9
2017-Nov-16 03:30S 33°29' E 151°38'3 6.3
2017-Nov-16 03:01S 33°26' E 151°39'5 8.1
2017-Nov-16 02:21S 33°22' E 151°43'3 7.3
2017-Nov-16 02:00S 33°20' E 151°45'3 6.6
2017-Nov-16 01:30S 33°17' E 151°47'3 6.8
2017-Nov-16 01:01S 33°14' E 151°49'3 6.7
2017-Nov-16 00:30S 33°11' E 151°51'3 6.9
2017-Nov-16 00:00S 33°08' E 151°53'4 6.8
2017-Nov-15 23:25S 33°05' E 151°56'3 7.1
2017-Nov-15 23:00S 33°03' E 151°59'3 6.9
2017-Nov-15 22:30S 32°60' E 152°01'4 7.8
2017-Nov-15 22:01S 32°57' E 152°04'5 7.0
2017-Nov-15 21:15S 32°52' E 152°07'2 6.9
2017-Nov-15 21:01S 32°51' E 152°08'12 6.5
2017-Nov-15 19:07S 32°41' E 152°17'1 6.9
2017-Nov-15 18:56S 32°40' E 152°17'3 0.3
2017-Nov-15 08:00S 32°37' E 152°19'0 0.0
2017-Nov-15 05:41S 32°37' E 152°19'0 0.0
2017-Nov-15 05:29S 32°37' E 152°19'5 2.7
2017-Nov-15 03:45S 32°34' E 152°23'1 5.7
2017-Nov-15 03:30S 32°34' E 152°25'2 4.3
2017-Nov-15 03:00S 32°33' E 152°27'2 4.6
2017-Nov-15 02:30S 32°32' E 152°29'3 6.2
2017-Nov-15 02:00S 32°30' E 152°32'4 8.1
2017-Nov-15 01:30S 32°27' E 152°35'4 8.6
2017-Nov-15 01:00S 32°23' E 152°38'4 8.6
2017-Nov-15 00:30S 32°19' E 152°40'10 7.5
2017-Nov-14 23:12S 32°10' E 152°43'1 7.1
2017-Nov-14 23:00S 32°08' E 152°44'4 7.2
2017-Nov-14 22:24S 32°04' E 152°46'7 7.2
2017-Nov-14 21:29S 31°58' E 152°48'3 7.0
2017-Nov-14 21:00S 31°55' E 152°50'6 6.7
2017-Nov-14 20:10S 31°49' E 152°51'1 6.7
2017-Nov-14 20:00S 31°48' E 152°51'3 6.7
2017-Nov-14 19:30S 31°45' E 152°51'3 6.9
2017-Nov-14 19:00S 31°42' E 152°51'4 0.3
2017-Nov-14 06:29S 31°39' E 152°48'0 0.1
2017-Nov-14 04:20S 31°39' E 152°48'0 0.6
2017-Nov-14 04:00S 31°39' E 152°48'3 5.4
2017-Nov-14 03:30S 31°38' E 152°51'3 5.7
2017-Nov-14 03:00S 31°35' E 152°53'3 5.3
2017-Nov-14 02:30S 31°33' E 152°54'3 5.6
2017-Nov-14 02:00S 31°31' E 152°56'8 5.5
2017-Nov-14 00:34S 31°24' E 153°01'0 5.2
2017-Nov-14 00:30S 31°24' E 153°01'3 5.2
2017-Nov-14 00:00S 31°21' E 153°02'3 5.1
2017-Nov-13 23:30S 31°19' E 153°03'2 4.9
2017-Nov-13 23:00S 31°16' E 153°03'2 5.0
2017-Nov-13 22:30S 31°14' E 153°04'3 5.2
2017-Nov-13 21:59S 31°11' E 153°05'56 2.7
2017-Nov-13 01:28S 30°18' E 153°22'4 8.7
2017-Nov-13 01:00S 30°14' E 153°24'4 8.5
2017-Nov-13 00:30S 30°10' E 153°25'5 8.3
2017-Nov-12 23:56S 30°05' E 153°26'3 7.9
2017-Nov-12 23:30S 30°02' E 153°26'4 7.6
2017-Nov-12 23:00S 29°58' E 153°25'8 7.4
2017-Nov-12 21:56S 29°50' E 153°25'3 7.3
2017-Nov-12 21:30S 29°47' E 153°25'4 7.2
2017-Nov-12 21:00S 29°44' E 153°26'4 7.1
2017-Nov-12 20:30S 29°40' E 153°25'4 7.5
2017-Nov-12 20:00S 29°36' E 153°24'7 7.4
2017-Nov-12 19:01S 29°29' E 153°24'0 0.0
2017-Nov-12 18:59S 29°29' E 153°24'  
Track history (hours):
 
Tides and Currents Weather Stations Pressure Air Temp Water Temp Dewpoint Dewpoint Depression Visibility Wind Speed Wind Dir Waves Ship Positions

Catina

Last reported at 2017-Nov-16 08:10 UTC. Time now 2017-Nov-25 01:42 UTC.
Position S 33°49' E 151°17'.
Warning: this ship's position is 8 days out of date.

Length 12 m; draft 0.9 m.

Type: Sailing vessel. MMSI: 503011820.

Date/timePositionNaut miles runAvg speedWind from/ knotsBaromVisibWave heightAir tempDewpointWater temp
2017-Nov-16 08:10S 33°49' E 151°17'0 0.0
2017-Nov-16 07:59S 33°49' E 151°17'1 2.6
2017-Nov-16 07:30S 33°50' E 151°18'3 6.9
2017-Nov-16 07:00S 33°47' E 151°21'4 7.2
2017-Nov-16 06:30S 33°44' E 151°24'4 7.0
2017-Nov-16 06:00S 33°41' E 151°26'3 6.6
2017-Nov-16 05:30S 33°39' E 151°29'3 6.1
2017-Nov-16 05:00S 33°37' E 151°31'3 7.0
2017-Nov-16 04:30S 33°34' E 151°34'3 6.3
2017-Nov-16 04:00S 33°31' E 151°36'3 5.9
2017-Nov-16 03:30S 33°29' E 151°38'3 6.3
2017-Nov-16 03:01S 33°26' E 151°39'5 8.1
2017-Nov-16 02:21S 33°22' E 151°43'3 7.3
2017-Nov-16 02:00S 33°20' E 151°45'3 6.6
2017-Nov-16 01:30S 33°17' E 151°47'3 6.8
2017-Nov-16 01:01S 33°14' E 151°49'3 6.7
2017-Nov-16 00:30S 33°11' E 151°51'3 6.9
2017-Nov-16 00:00S 33°08' E 151°53'4 6.8
2017-Nov-15 23:25S 33°05' E 151°56'3 7.1
2017-Nov-15 23:00S 33°03' E 151°59'3 6.9
2017-Nov-15 22:30S 32°60' E 152°01'4 7.8
2017-Nov-15 22:01S 32°57' E 152°04'5 7.0
2017-Nov-15 21:15S 32°52' E 152°07'2 6.9
2017-Nov-15 21:01S 32°51' E 152°08'12 6.5
2017-Nov-15 19:07S 32°41' E 152°17'1 6.9
2017-Nov-15 18:56S 32°40' E 152°17'3 0.3
2017-Nov-15 08:00S 32°37' E 152°19'0 0.0
2017-Nov-15 05:41S 32°37' E 152°19'0 0.0
2017-Nov-15 05:29S 32°37' E 152°19'5 2.7
2017-Nov-15 03:45S 32°34' E 152°23'1 5.7
2017-Nov-15 03:30S 32°34' E 152°25'2 4.3
2017-Nov-15 03:00S 32°33' E 152°27'2 4.6
2017-Nov-15 02:30S 32°32' E 152°29'3 6.2
2017-Nov-15 02:00S 32°30' E 152°32'4 8.1
2017-Nov-15 01:30S 32°27' E 152°35'4 8.6
2017-Nov-15 01:00S 32°23' E 152°38'4 8.6
2017-Nov-15 00:30S 32°19' E 152°40'10 7.5
2017-Nov-14 23:12S 32°10' E 152°43'1 7.1
2017-Nov-14 23:00S 32°08' E 152°44'4 7.2
2017-Nov-14 22:24S 32°04' E 152°46'7 7.2
2017-Nov-14 21:29S 31°58' E 152°48'3 7.0
2017-Nov-14 21:00S 31°55' E 152°50'6 6.7
2017-Nov-14 20:10S 31°49' E 152°51'1 6.7
2017-Nov-14 20:00S 31°48' E 152°51'3 6.7
2017-Nov-14 19:30S 31°45' E 152°51'3 6.9
2017-Nov-14 19:00S 31°42' E 152°51'4 0.3
2017-Nov-14 06:29S 31°39' E 152°48'0 0.1
2017-Nov-14 04:20S 31°39' E 152°48'0 0.6
2017-Nov-14 04:00S 31°39' E 152°48'3 5.4
2017-Nov-14 03:30S 31°38' E 152°51'3 5.7
2017-Nov-14 03:00S 31°35' E 152°53'3 5.3
2017-Nov-14 02:30S 31°33' E 152°54'3 5.6
2017-Nov-14 02:00S 31°31' E 152°56'8 5.5
2017-Nov-14 00:34S 31°24' E 153°01'0 5.2
2017-Nov-14 00:30S 31°24' E 153°01'3 5.2
2017-Nov-14 00:00S 31°21' E 153°02'3 5.1
2017-Nov-13 23:30S 31°19' E 153°03'2 4.9
2017-Nov-13 23:00S 31°16' E 153°03'2 5.0
2017-Nov-13 22:30S 31°14' E 153°04'3 5.2
2017-Nov-13 21:59S 31°11' E 153°05'56 2.7
2017-Nov-13 01:28S 30°18' E 153°22'4 8.7
2017-Nov-13 01:00S 30°14' E 153°24'4 8.5
2017-Nov-13 00:30S 30°10' E 153°25'5 8.3
2017-Nov-12 23:56S 30°05' E 153°26'3 7.9
2017-Nov-12 23:30S 30°02' E 153°26'4 7.6
2017-Nov-12 23:00S 29°58' E 153°25'8 7.4
2017-Nov-12 21:56S 29°50' E 153°25'3 7.3
2017-Nov-12 21:30S 29°47' E 153°25'4 7.2
2017-Nov-12 21:00S 29°44' E 153°26'4 7.1
2017-Nov-12 20:30S 29°40' E 153°25'4 7.5
2017-Nov-12 20:00S 29°36' E 153°24'7 7.4
2017-Nov-12 19:01S 29°29' E 153°24'0 0.0
2017-Nov-12 18:59S 29°29' E 153°24'  

Dump ship's entire track history